createdAt,value
2022-11-17T00:00:00.093Z,13.57
2022-11-17T00:02:28.049Z,13.93
2022-11-17T00:04:55.987Z,12.23
2022-11-17T00:07:24.032Z,13.15
2022-11-17T00:09:51.929Z,13.00
2022-11-17T00:12:48.576Z,12.38
2022-11-17T00:15:18.196Z,13.13
2022-11-17T00:17:47.895Z,13.50
2022-11-17T00:20:33.564Z,15.73
2022-11-17T00:23:01.482Z,12.35
2022-11-17T00:25:29.416Z,14.68
2022-11-17T00:27:57.324Z,17.10
2022-11-17T00:30:44.108Z,14.48
2022-11-17T00:33:29.607Z,13.57
2022-11-17T00:35:57.549Z,15.82
2022-11-17T00:38:25.443Z,14.75
2022-11-17T00:40:53.356Z,15.80
2022-11-17T00:43:21.319Z,14.90
2022-11-17T00:45:50.653Z,16.58
2022-11-17T00:48:18.587Z,12.48
2022-11-17T00:50:46.463Z,14.10
2022-11-17T00:53:14.396Z,14.85
2022-11-17T00:55:44.000Z,15.15
2022-11-17T00:58:12.021Z,14.77
2022-11-17T01:00:40.285Z,14.80
2022-11-17T01:03:09.606Z,17.92
2022-11-17T01:05:37.524Z,14.55
2022-11-17T01:08:05.792Z,13.30
2022-11-17T01:10:35.805Z,13.75
2022-11-17T01:13:04.202Z,16.70
2022-11-17T01:15:32.074Z,13.82
2022-11-17T01:18:00.083Z,12.35
2022-11-17T01:20:29.654Z,13.55
2022-11-17T01:22:57.646Z,15.10
2022-11-17T01:25:25.576Z,13.23
2022-11-17T01:27:53.591Z,15.05
2022-11-17T01:30:21.703Z,14.25
2022-11-17T01:32:49.639Z,12.82
2022-11-17T01:35:17.560Z,14.73
2022-11-17T01:37:46.871Z,13.90
2022-11-17T01:40:15.094Z,14.85
2022-11-17T01:42:43.021Z,13.25
2022-11-17T01:45:22.154Z,15.00
2022-11-17T01:47:53.663Z,16.05
2022-11-17T01:50:28.104Z,15.18
2022-11-17T01:53:00.663Z,17.13
2022-11-17T01:55:35.281Z,19.25
2022-11-17T01:58:06.874Z,16.17
2022-11-17T02:00:34.843Z,16.90
2022-11-17T02:03:07.100Z,12.07
2022-11-17T02:05:44.354Z,11.82
2022-11-17T02:08:14.271Z,16.25
2022-11-17T02:10:48.577Z,13.88
2022-11-17T02:13:20.273Z,15.10
2022-11-17T02:15:48.449Z,15.75
2022-11-17T02:18:17.520Z,14.65
2022-11-17T02:20:55.420Z,13.65
2022-11-17T02:23:51.226Z,14.25
2022-11-17T02:26:41.879Z,14.15
2022-11-17T02:29:20.881Z,14.48
2022-11-17T02:31:58.154Z,15.23
2022-11-17T02:34:39.325Z,14.25
2022-11-17T02:37:17.244Z,14.40
2022-11-17T02:39:51.140Z,17.63
2022-11-17T02:42:46.873Z,17.33
2022-11-17T02:45:20.933Z,13.90
2022-11-17T02:47:51.784Z,16.00
2022-11-17T02:50:26.803Z,14.68
2022-11-17T02:52:56.362Z,16.70
2022-11-17T02:55:24.361Z,15.82
2022-11-17T02:57:52.273Z,14.23
2022-11-17T03:00:22.031Z,13.70
2022-11-17T03:03:10.297Z,15.38
2022-11-17T03:05:47.809Z,14.48
2022-11-17T03:08:32.935Z,12.45
2022-11-17T03:11:03.773Z,16.35
2022-11-17T03:13:41.524Z,13.60
2022-11-17T03:16:18.234Z,13.77
2022-11-17T03:18:57.835Z,12.18
2022-11-17T03:21:32.702Z,15.05
2022-11-17T03:24:06.792Z,15.57
2022-11-17T03:26:37.539Z,15.93
2022-11-17T03:29:10.892Z,16.23
2022-11-17T03:31:42.040Z,14.07
2022-11-17T03:34:14.553Z,14.77
2022-11-17T03:36:48.446Z,13.37
2022-11-17T03:39:23.665Z,14.68
2022-11-17T03:41:55.254Z,14.85
2022-11-17T03:44:26.003Z,15.50
2022-11-17T03:46:56.687Z,14.50
2022-11-17T03:49:34.078Z,12.75
2022-11-17T03:52:02.276Z,13.25
2022-11-17T03:54:30.207Z,13.50
2022-11-17T03:57:03.917Z,14.43
2022-11-17T03:59:38.560Z,13.38
2022-11-17T04:02:07.932Z,15.00
2022-11-17T04:04:49.746Z,14.60
2022-11-17T04:07:17.767Z,16.13
2022-11-17T04:09:45.705Z,13.82
2022-11-17T04:12:30.979Z,12.88
2022-11-17T04:15:16.441Z,13.27
2022-11-17T04:17:45.790Z,14.10
2022-11-17T04:20:13.714Z,15.27
2022-11-17T04:22:41.627Z,13.60
2022-11-17T04:25:30.345Z,14.20
2022-11-17T04:28:15.632Z,16.90
2022-11-17T04:30:43.525Z,13.55
2022-11-17T04:33:12.821Z,14.90
2022-11-17T04:35:40.860Z,15.07
2022-11-17T04:38:08.820Z,16.85
2022-11-17T04:40:56.791Z,16.13
2022-11-17T04:43:23.785Z,13.48
2022-11-17T04:45:51.669Z,14.48
2022-11-17T04:48:20.951Z,16.15
2022-11-17T04:50:48.859Z,17.80
2022-11-17T04:53:16.781Z,17.48
2022-11-17T04:55:44.719Z,15.80
2022-11-17T04:58:12.678Z,15.15
2022-11-17T05:00:40.627Z,13.90
2022-11-17T05:03:08.881Z,19.38
2022-11-17T05:05:38.186Z,19.92
2022-11-17T05:08:06.387Z,16.58
2022-11-17T05:10:51.754Z,18.48
2022-11-17T05:13:26.198Z,18.17
2022-11-17T05:16:12.299Z,15.98
2022-11-17T05:18:40.407Z,15.93
2022-11-17T05:21:11.859Z,17.58
2022-11-17T05:23:56.673Z,15.45
2022-11-17T05:26:26.546Z,16.13
2022-11-17T05:28:56.793Z,15.95
2022-11-17T05:31:25.063Z,20.08
2022-11-17T05:33:53.740Z,17.52
2022-11-17T05:36:24.382Z,15.55
2022-11-17T05:38:52.807Z,16.88
2022-11-17T05:41:21.441Z,18.52
2022-11-17T05:43:50.428Z,15.95
2022-11-17T05:46:19.951Z,15.90
2022-11-17T05:48:48.787Z,18.58
2022-11-17T05:51:17.750Z,19.63
2022-11-17T05:53:47.182Z,17.58
2022-11-17T05:56:34.369Z,16.98
2022-11-17T05:59:11.299Z,17.38
2022-11-17T06:01:44.866Z,15.98
2022-11-17T06:04:17.807Z,20.33
2022-11-17T06:06:47.603Z,16.48
2022-11-17T06:09:17.630Z,17.08
2022-11-17T06:11:45.561Z,16.98
2022-11-17T06:14:13.482Z,19.30
2022-11-17T06:16:45.887Z,16.83
2022-11-17T06:19:19.766Z,14.53
2022-11-17T06:22:10.538Z,16.20
2022-11-17T06:24:38.852Z,23.83
2022-11-17T06:27:06.982Z,18.02
2022-11-17T06:29:38.259Z,17.13
2022-11-17T06:32:08.939Z,15.75
2022-11-17T06:34:37.559Z,17.95
2022-11-17T06:37:05.479Z,18.77
2022-11-17T06:39:33.454Z,13.55
2022-11-17T06:42:02.746Z,16.10
2022-11-17T06:44:30.795Z,18.42
2022-11-17T06:46:58.696Z,18.17
2022-11-17T06:49:26.629Z,17.70
2022-11-17T06:51:54.549Z,16.40
2022-11-17T06:54:22.432Z,16.40
2022-11-17T06:56:52.385Z,13.48
2022-11-17T06:59:21.617Z,17.77
2022-11-17T07:01:49.505Z,14.55
2022-11-17T07:04:17.368Z,18.42
2022-11-17T07:06:45.418Z,19.77
2022-11-17T07:09:13.374Z,16.70
2022-11-17T07:11:41.344Z,17.58
2022-11-17T07:14:09.389Z,16.15
2022-11-17T07:16:38.927Z,14.20
2022-11-17T07:19:08.300Z,14.15
2022-11-17T07:21:36.215Z,14.77
2022-11-17T07:24:04.596Z,16.58
2022-11-17T07:26:32.540Z,15.52
2022-11-17T07:29:00.435Z,16.60
2022-11-17T07:31:28.496Z,15.15
2022-11-17T07:33:57.906Z,14.73
2022-11-17T07:36:25.913Z,14.93
2022-11-17T07:38:53.862Z,14.63
2022-11-17T07:41:21.934Z,16.85
2022-11-17T07:43:49.868Z,18.15
2022-11-17T07:46:17.856Z,17.35
2022-11-17T07:48:45.972Z,15.77
2022-11-17T07:51:17.170Z,17.17
2022-11-17T07:53:45.114Z,15.63
2022-11-17T07:56:13.404Z,12.73
2022-11-17T07:58:42.243Z,15.95
2022-11-17T08:01:12.031Z,14.40
2022-11-17T08:03:40.062Z,13.77
2022-11-17T08:06:10.052Z,13.48
2022-11-17T08:08:40.327Z,15.27
2022-11-17T08:11:10.820Z,14.88
2022-11-17T08:13:40.068Z,15.18
2022-11-17T08:16:08.845Z,16.42
2022-11-17T08:18:37.452Z,14.68
2022-11-17T08:21:07.462Z,11.70
2022-11-17T08:23:35.954Z,15.60
2022-11-17T08:26:07.149Z,13.00
2022-11-17T08:28:35.737Z,13.60
2022-11-17T08:31:04.994Z,13.93
2022-11-17T08:33:33.174Z,15.82
2022-11-17T08:36:02.211Z,14.65
2022-11-17T08:38:30.712Z,16.38
2022-11-17T08:40:59.417Z,14.75
2022-11-17T08:43:29.027Z,15.77
2022-11-17T08:45:57.273Z,15.15
2022-11-17T08:48:25.540Z,14.57
2022-11-17T08:50:53.567Z,15.02
2022-11-17T08:53:23.368Z,17.33
2022-11-17T08:55:52.698Z,14.13
2022-11-17T08:58:20.699Z,17.38
2022-11-17T09:00:50.077Z,17.20
2022-11-17T09:03:18.078Z,17.23
2022-11-17T09:05:48.347Z,15.07
2022-11-17T09:08:43.972Z,17.55
2022-11-17T09:11:06.811Z,16.17
2022-11-17T09:13:35.251Z,23.17
2022-11-17T09:16:05.183Z,16.35
2022-11-17T09:18:33.775Z,19.77
2022-11-17T09:21:02.282Z,17.20
2022-11-17T09:23:31.665Z,20.10
2022-11-17T09:26:00.332Z,19.27
2022-11-17T09:28:28.462Z,18.55
2022-11-17T09:30:56.483Z,19.63
2022-11-17T09:33:26.063Z,17.52
2022-11-17T09:35:57.993Z,19.77
2022-11-17T09:38:25.985Z,20.55
2022-11-17T09:40:55.214Z,21.33
2022-11-17T09:43:30.082Z,17.38
2022-11-17T09:46:07.549Z,19.13
2022-11-17T09:48:45.342Z,20.95
2022-11-17T09:51:17.951Z,22.80
2022-11-17T09:53:52.058Z,19.90
2022-11-17T09:56:20.183Z,25.52
2022-11-17T09:58:52.165Z,19.88
2022-11-17T10:01:22.278Z,21.42
2022-11-17T10:03:53.590Z,17.88
2022-11-17T10:06:22.918Z,20.55
2022-11-17T10:09:00.383Z,20.33
2022-11-17T10:11:35.014Z,19.35
2022-11-17T10:14:11.828Z,20.85
2022-11-17T10:16:41.913Z,22.20
2022-11-17T10:19:17.901Z,19.98
2022-11-17T10:21:48.482Z,27.38
2022-11-17T10:24:34.704Z,19.70
2022-11-17T10:27:04.170Z,20.63
2022-11-17T10:29:32.191Z,23.17
2022-11-17T10:32:01.711Z,20.08
2022-11-17T10:34:40.995Z,21.20
2022-11-17T10:37:26.006Z,23.95
2022-11-17T10:40:08.232Z,22.02
2022-11-17T10:42:36.688Z,19.60
2022-11-17T10:45:04.923Z,20.95
2022-11-17T10:47:38.611Z,20.65
2022-11-17T10:50:18.721Z,20.30
2022-11-17T10:52:46.751Z,22.67
2022-11-17T10:55:24.944Z,22.55
2022-11-17T10:57:56.487Z,19.25
2022-11-17T11:00:28.055Z,18.80
2022-11-17T11:03:17.695Z,21.65
2022-11-17T11:06:06.732Z,18.83
2022-11-17T11:08:45.976Z,22.17
2022-11-17T11:11:36.690Z,18.95
2022-11-17T11:14:14.098Z,21.52
2022-11-17T11:16:47.842Z,21.33
2022-11-17T11:19:18.248Z,20.92
2022-11-17T11:22:21.577Z,21.73
2022-11-17T11:24:56.161Z,23.80
2022-11-17T11:27:49.589Z,21.02
2022-11-17T11:30:19.313Z,18.80
2022-11-17T11:33:04.933Z,17.55
2022-11-17T11:35:49.306Z,19.35
2022-11-17T11:38:31.529Z,19.83
2022-11-17T11:41:13.104Z,18.00
2022-11-17T11:43:50.463Z,20.02
2022-11-17T11:46:25.028Z,16.65
2022-11-17T11:48:58.212Z,19.40
2022-11-17T11:51:30.699Z,19.92
2022-11-17T11:54:07.468Z,20.30
2022-11-17T11:56:39.498Z,16.95
2022-11-17T11:59:13.591Z,16.75
2022-11-17T12:01:48.670Z,24.88
2022-11-17T12:04:31.746Z,18.02
2022-11-17T12:07:07.306Z,17.90
2022-11-17T12:09:57.103Z,17.85
2022-11-17T12:12:31.871Z,16.98
2022-11-17T12:15:32.609Z,15.73
2022-11-17T12:18:03.962Z,18.90
2022-11-17T12:21:01.556Z,15.80
2022-11-17T12:23:44.185Z,16.02
2022-11-17T12:26:26.713Z,15.30
2022-11-17T12:29:33.986Z,18.80
2022-11-17T12:32:03.643Z,17.48
2022-11-17T12:34:35.448Z,14.57
2022-11-17T12:37:26.229Z,15.98
2022-11-17T12:40:02.712Z,17.85
2022-11-17T12:42:33.374Z,16.10
2022-11-17T12:45:07.357Z,20.05
2022-11-17T12:47:37.082Z,16.65
2022-11-17T12:50:21.332Z,14.88
2022-11-17T12:53:02.681Z,20.15
2022-11-17T12:55:53.702Z,19.30
2022-11-17T12:58:30.798Z,17.83
2022-11-17T13:01:10.287Z,16.02
2022-11-17T13:03:46.645Z,16.42
2022-11-17T13:09:12.903Z,15.77
2022-11-17T13:12:00.046Z,21.67
2022-11-17T13:14:32.358Z,16.83
2022-11-17T13:17:01.970Z,16.33
2022-11-17T13:19:37.568Z,16.63
2022-11-17T13:22:15.022Z,15.93
2022-11-17T13:24:45.292Z,12.98
2022-11-17T13:27:22.776Z,13.70
2022-11-17T13:29:52.727Z,13.93
2022-11-17T13:32:23.824Z,13.77
2022-11-17T13:34:56.455Z,14.23
2022-11-17T13:37:26.111Z,14.93
2022-11-17T13:39:59.412Z,17.55
2022-11-17T13:45:00.736Z,14.75
2022-11-17T13:47:42.565Z,18.17
2022-11-17T13:50:37.206Z,16.67
2022-11-17T13:53:18.026Z,12.70
2022-11-17T13:55:47.678Z,16.52
2022-11-17T13:58:36.318Z,15.75
2022-11-17T14:01:06.142Z,14.57
2022-11-17T14:03:37.174Z,12.18
2022-11-17T14:06:08.247Z,16.73
2022-11-17T14:08:37.424Z,15.20
2022-11-17T14:11:15.388Z,17.80
2022-11-17T14:13:46.253Z,17.70
2022-11-17T14:16:25.032Z,17.02
2022-11-17T14:18:59.178Z,23.10
2022-11-17T14:21:27.856Z,14.85
2022-11-17T14:24:13.024Z,17.30
2022-11-17T14:26:45.692Z,18.95
2022-11-17T14:29:14.690Z,16.50
2022-11-17T14:31:44.409Z,16.95
2022-11-17T14:34:13.041Z,18.55
2022-11-17T14:36:41.920Z,18.63
2022-11-17T14:39:15.951Z,17.98
2022-11-17T14:41:45.190Z,15.23
2022-11-17T14:44:13.451Z,16.05
2022-11-17T14:46:41.504Z,15.75
2022-11-17T14:49:11.132Z,15.80
2022-11-17T14:51:39.397Z,19.50
2022-11-17T14:54:07.443Z,15.63
2022-11-17T14:56:36.050Z,19.25
2022-11-17T14:59:04.106Z,16.15
2022-11-17T15:01:34.635Z,14.48
2022-11-17T15:04:20.765Z,17.13
2022-11-17T15:06:50.950Z,16.20
2022-11-17T15:09:20.712Z,16.50
2022-11-17T15:11:48.997Z,20.10
2022-11-17T15:14:17.168Z,18.05
2022-11-17T15:16:45.438Z,16.42
2022-11-17T15:19:13.467Z,16.90
2022-11-17T15:21:41.502Z,17.35
2022-11-17T15:24:10.922Z,16.38
2022-11-17T15:26:38.937Z,16.33
2022-11-17T15:29:06.993Z,18.30
2022-11-17T15:31:34.960Z,19.45
2022-11-17T15:34:03.375Z,18.00
2022-11-17T15:36:32.949Z,17.70
2022-11-17T15:39:01.169Z,18.48
2022-11-17T15:41:33.152Z,22.42
2022-11-17T15:44:02.173Z,17.17
2022-11-17T15:46:30.538Z,20.45
2022-11-17T15:48:58.682Z,22.55
2022-11-17T15:51:28.844Z,19.33
2022-11-17T15:53:58.781Z,17.85
2022-11-17T15:56:28.118Z,22.90
2022-11-17T15:58:58.858Z,22.17
2022-11-17T16:01:32.059Z,21.90
2022-11-17T16:06:29.653Z,20.65
2022-11-17T16:08:58.654Z,21.85
2022-11-17T16:11:27.767Z,26.55
2022-11-17T16:13:58.091Z,24.33
2022-11-17T16:16:27.647Z,21.55
2022-11-17T16:18:55.763Z,26.20
2022-11-17T16:21:24.117Z,23.42
2022-11-17T16:23:54.646Z,24.30
2022-11-17T16:26:24.357Z,21.08
2022-11-17T16:28:58.827Z,22.25
2022-11-17T16:31:28.797Z,22.00
2022-11-17T16:33:58.392Z,22.60
2022-11-17T16:36:31.388Z,24.30
2022-11-17T16:39:03.879Z,24.88
2022-11-17T16:41:33.877Z,20.48
2022-11-17T16:44:04.586Z,25.25
2022-11-17T16:46:33.226Z,22.02
2022-11-17T16:49:07.168Z,24.60
2022-11-17T16:51:36.161Z,23.95
2022-11-17T16:54:06.239Z,21.60
2022-11-17T16:56:35.360Z,20.38
2022-11-17T16:59:04.926Z,23.05
2022-11-17T17:01:34.787Z,22.50
2022-11-17T17:04:05.205Z,21.52
2022-11-17T17:06:37.240Z,21.88
2022-11-17T17:09:07.341Z,24.05
2022-11-17T17:11:36.740Z,20.63
2022-11-17T17:14:08.597Z,22.00
2022-11-17T17:16:38.931Z,22.70
2022-11-17T17:19:09.034Z,24.25
2022-11-17T17:21:38.252Z,20.23
2022-11-17T17:24:07.349Z,23.95
2022-11-17T17:26:37.286Z,23.65
2022-11-17T17:29:09.830Z,21.45
2022-11-17T17:31:39.546Z,24.17
2022-11-17T17:34:08.998Z,22.52
2022-11-17T17:36:38.462Z,23.95
2022-11-17T17:39:07.350Z,20.42
2022-11-17T17:41:39.609Z,23.45
2022-11-17T17:44:15.286Z,21.35
2022-11-17T17:46:43.921Z,23.85
2022-11-17T17:49:12.744Z,21.40
2022-11-17T17:51:44.101Z,22.52
2022-11-17T17:54:17.035Z,23.42
2022-11-17T17:56:45.730Z,27.55
2022-11-17T17:59:15.960Z,27.35
2022-11-17T18:01:46.446Z,28.17
2022-11-17T18:04:16.527Z,24.70
2022-11-17T18:06:47.881Z,27.60
2022-11-17T18:09:19.541Z,25.83
2022-11-17T18:11:49.848Z,27.63
2022-11-17T18:14:24.465Z,26.85
2022-11-17T18:16:53.263Z,30.13
2022-11-17T18:19:22.181Z,33.22
2022-11-17T18:21:50.302Z,28.40
2022-11-17T18:24:18.555Z,31.35
2022-11-17T18:26:46.878Z,32.13
2022-11-17T18:29:20.360Z,33.88
2022-11-17T18:31:50.574Z,29.42
2022-11-17T18:34:21.071Z,29.00
2022-11-17T18:36:52.760Z,33.08
2022-11-17T18:39:21.460Z,29.35
2022-11-17T18:41:49.734Z,32.20
2022-11-17T18:44:19.805Z,32.03
2022-11-17T18:46:49.633Z,27.48
2022-11-17T18:49:18.053Z,29.60
2022-11-17T18:51:49.041Z,32.33
2022-11-17T18:54:17.256Z,28.10
2022-11-17T18:56:45.448Z,28.08
2022-11-17T18:59:14.206Z,28.42
2022-11-17T19:01:43.721Z,29.25
2022-11-17T19:04:18.449Z,28.30
2022-11-17T19:06:46.682Z,27.45
2022-11-17T19:09:16.222Z,31.30
2022-11-17T19:11:46.460Z,28.38
2022-11-17T19:14:14.504Z,29.25
2022-11-17T19:16:44.763Z,26.40
2022-11-17T19:19:15.357Z,27.70
2022-11-17T19:21:43.990Z,28.75
2022-11-17T19:24:12.022Z,27.73
2022-11-17T19:26:40.092Z,25.95
2022-11-17T19:29:16.033Z,30.77
2022-11-17T19:31:45.169Z,26.98
2022-11-17T19:34:14.745Z,29.95
2022-11-17T19:36:42.982Z,28.58
2022-11-17T19:39:15.103Z,31.08
2022-11-17T19:41:44.945Z,29.63
2022-11-17T19:44:15.368Z,28.90
2022-11-17T19:46:43.488Z,31.65
2022-11-17T19:49:14.363Z,29.90
2022-11-17T19:51:42.526Z,28.08
2022-11-17T19:54:11.081Z,30.75
2022-11-17T19:56:41.760Z,29.83
2022-11-17T19:59:18.656Z,32.92
2022-11-17T20:01:47.032Z,32.03
2022-11-17T20:04:16.529Z,30.92
2022-11-17T20:06:44.611Z,34.08
2022-11-17T20:09:15.062Z,30.98
2022-11-17T20:11:43.591Z,35.58
2022-11-17T20:14:11.737Z,34.50
2022-11-17T20:16:39.842Z,32.90
2022-11-17T20:19:08.128Z,32.88
2022-11-17T20:21:37.460Z,41.30
2022-11-17T20:24:05.807Z,35.00
2022-11-17T20:26:36.113Z,33.92
2022-11-17T20:29:04.226Z,31.05
2022-11-17T20:31:34.180Z,30.33
2022-11-17T20:34:03.925Z,34.30
2022-11-17T20:36:33.976Z,37.20
2022-11-17T20:39:05.432Z,31.42
2022-11-17T20:41:33.464Z,34.20
2022-11-17T20:44:03.137Z,35.97
2022-11-17T20:46:31.441Z,35.25
2022-11-17T20:48:59.436Z,32.95
2022-11-17T20:51:27.549Z,32.53
2022-11-17T20:53:55.546Z,35.55
2022-11-17T20:56:24.913Z,40.53
2022-11-17T20:58:53.102Z,29.13
2022-11-17T21:01:23.896Z,30.98
2022-11-17T21:03:52.111Z,33.78
2022-11-17T21:06:22.926Z,32.28
2022-11-17T21:08:51.499Z,35.50
2022-11-17T21:11:35.094Z,29.75
2022-11-17T21:14:05.925Z,35.40
2022-11-17T21:16:34.789Z,30.65
2022-11-17T21:19:02.784Z,31.08
2022-11-17T21:21:30.881Z,31.73
2022-11-17T21:23:59.635Z,34.35
2022-11-17T21:26:28.792Z,27.67
2022-11-17T21:29:00.487Z,29.92
2022-11-17T21:31:33.181Z,31.80
2022-11-17T21:34:02.698Z,33.22
2022-11-17T21:36:32.169Z,32.53
2022-11-17T21:39:00.797Z,30.73
2022-11-17T21:41:30.261Z,28.50
2022-11-17T21:44:01.861Z,29.33
2022-11-17T21:46:33.235Z,28.60
2022-11-17T21:49:02.257Z,30.80
2022-11-17T21:51:33.380Z,31.42
2022-11-17T21:54:03.363Z,33.28
2022-11-17T21:56:32.177Z,26.25
2022-11-17T21:59:01.878Z,31.50
2022-11-17T22:01:30.667Z,29.70
2022-11-17T22:04:00.416Z,27.20
2022-11-17T22:06:28.999Z,28.00
2022-11-17T22:08:57.790Z,28.48
2022-11-17T22:11:37.350Z,37.35
2022-11-17T22:14:08.581Z,30.35
2022-11-17T22:16:38.074Z,30.02
2022-11-17T22:19:07.923Z,31.58
2022-11-17T22:21:36.558Z,31.48
2022-11-17T22:24:04.977Z,31.20
2022-11-17T22:26:35.937Z,28.30
2022-11-17T22:29:04.234Z,30.85
2022-11-17T22:31:32.166Z,30.55
2022-11-17T22:34:00.785Z,34.10
2022-11-17T22:36:30.147Z,31.45
2022-11-17T22:38:58.381Z,31.25
2022-11-17T22:41:26.325Z,30.23
2022-11-17T22:43:55.992Z,31.88
2022-11-17T22:46:26.759Z,35.33
2022-11-17T22:48:54.832Z,32.70
2022-11-17T22:51:36.793Z,28.40
2022-11-17T22:54:06.597Z,30.33
2022-11-17T22:56:34.777Z,32.50
2022-11-17T22:59:02.855Z,30.77
2022-11-17T23:01:30.883Z,37.22
2022-11-17T23:03:59.286Z,35.80
2022-11-17T23:06:28.467Z,41.60
2022-11-17T23:08:58.097Z,35.03
2022-11-17T23:11:43.381Z,38.13
2022-11-17T23:14:12.985Z,34.03
2022-11-17T23:16:41.728Z,36.17
2022-11-17T23:19:13.384Z,36.00
2022-11-17T23:21:41.972Z,35.60
2022-11-17T23:24:12.815Z,44.22
2022-11-17T23:26:43.480Z,35.50
2022-11-17T23:29:11.762Z,39.60
2022-11-17T23:31:39.728Z,40.70
2022-11-17T23:34:09.573Z,37.28
2022-11-17T23:36:37.643Z,37.28
2022-11-17T23:39:05.968Z,36.03
2022-11-17T23:41:34.162Z,39.80
2022-11-17T23:44:03.718Z,36.40
2022-11-17T23:46:31.716Z,41.85
2022-11-17T23:48:59.683Z,37.90
2022-11-17T23:51:29.872Z,42.00
2022-11-17T23:53:59.909Z,34.47
2022-11-17T23:56:28.078Z,36.13
2022-11-17T23:58:55.974Z,36.35
